Wednesday, August 15, 2018, 4:42 AM EDT
Back to Local

KGFL, Floyd Bennett Memorial Airport

Location: Queensbury, NY, United States Lat: 43.333
Local Time: 4:42 AM EDT ( 8:42 GMT) Lon: -73.617
Time Zone: US/Eastern Elev: 328 ft

Show me the last for .
Show Decoded

2018-08-15 04:18 METAR KGFL 150818Z AUTO 00000KT 1SM BR VV004 18/18 A2981 RMK AO2 T01830183 =
2018-08-15 04:12 METAR KGFL 150812Z AUTO 11003KT 2 1/2SM BR SCT002 18/18 A2980 RMK AO2 T01830183
                 =
2018-08-15 03:53 METAR KGFL 150753Z AUTO 00000KT 9SM OVC002 19/19 A2981 RMK AO2 SLP092 T01890189
                 =
2018-08-15 03:27 METAR KGFL 150727Z AUTO 29003KT 3SM BR BKN002 18/18 A2981 RMK AO2 T01830183 =
2018-08-15 03:23 METAR KGFL 150723Z AUTO 00000KT 1SM BR OVC002 18/18 A2981 RMK AO2 T01830183 =
2018-08-15 03:20 METAR KGFL 150720Z AUTO 00000KT 1/2SM FG VV003 18/18 A2981 RMK AO2 T01830183 =
2018-08-15 03:06 METAR KGFL 150706Z AUTO 00000KT 3/4SM BR VV002 19/19 A2981 RMK AO2 T01890189 =
2018-08-15 02:56 METAR KGFL 150656Z AUTO 00000KT 1 3/4SM BR BKN002 18/18 A2981 RMK AO2 T01830183
                 =
2018-08-15 02:53 METAR KGFL 150653Z AUTO 00000KT 4SM BR BKN002 18/18 A2981 RMK AO2 SLP092
                 T01830183 =
2018-08-15 02:48 METAR KGFL 150648Z AUTO 29003KT 4SM BR BKN002 18/18 A2982 RMK AO2 =
2018-08-15 02:45 METAR KGFL 150645Z AUTO 30003KT 1 1/4SM BR BKN002 18/18 A2982 RMK AO2 T01830183
                 =
2018-08-15 02:32 METAR KGFL 150632Z AUTO 16003KT 1/2SM FG VV002 18/18 A2981 RMK AO2 T01830183 =
2018-08-15 02:10 METAR KGFL 150610Z AUTO 00000KT 1 3/4SM BR BKN002 18/18 A2983 RMK AO2 T01780178
                 =
2018-08-15 02:08 METAR KGFL 150608Z AUTO 00000KT 4SM BR BKN002 18/18 A2983 RMK AO2 T01830183 =
2018-08-15 01:53 METAR KGFL 150553Z AUTO 00000KT 10SM FEW002 19/19 A2982 RMK AO2 SLP095 T01940189
                 10228 20172 51001 =
2018-08-15 01:32 METAR KGFL 150532Z AUTO 29003KT 8SM SCT003 19/19 A2982 RMK AO2 T01890189 =
2018-08-15 01:25 METAR KGFL 150525Z AUTO 00000KT 2SM BR FEW003 18/18 A2982 RMK AO2 T01830183 =
2018-08-15 01:12 METAR KGFL 150512Z AUTO 00000KT 3/4SM BR VV003 18/18 A2982 RMK AO2 T01780178 =
2018-08-15 01:10 METAR KGFL 150510Z AUTO 00000KT 1 3/4SM BR CLR 18/18 A2982 RMK AO2 T01780178 =
2018-08-15 00:53 METAR KGFL 150453Z AUTO 00000KT 10SM CLR 19/19 A2982 RMK AO2 SLP095 T01940194
                 402830183 =
2018-08-15 00:16 METAR KGFL 150416Z AUTO 00000KT 6SM BR SCT002 19/19 A2983 RMK AO2 T01890189 =
2018-08-15 00:13 METAR KGFL 150413Z AUTO 31003KT 2SM BR BKN002 19/19 A2983 RMK AO2 T01890189 =
2018-08-15 00:06 METAR KGFL 150406Z AUTO 00000KT 1/2SM FG VV002 18/18 A2983 RMK AO2 T01830183 =
2018-08-14 23:58 METAR KGFL 150358Z AUTO 00000KT 1 1/2SM BR BKN002 19/19 A2983 RMK AO2 T01890189
                 =
2018-08-14 23:53 METAR KGFL 150353Z AUTO 00000KT 5SM BR SCT002 19/19 A2982 RMK AO2 SLP098
                 T01890189 =
2018-08-14 23:51 METAR KGFL 150351Z AUTO 00000KT 1 1/2SM BR SCT002 19/19 A2982 RMK AO2 =
2018-08-14 23:39 METAR KGFL 150339Z AUTO 00000KT 3/4SM BR VV002 19/19 A2982 RMK AO2 T01890189 =
2018-08-14 23:36 METAR KGFL 150336Z AUTO 00000KT 1 1/2SM BR FEW002 19/19 A2982 RMK AO2 T01890189
                 =
2018-08-14 23:21 METAR KGFL 150321Z AUTO 00000KT 10SM FEW002 19/19 A2983 RMK AO2 T01940194 =
2018-08-14 23:12 METAR KGFL 150312Z AUTO 00000KT 3SM BR FEW036 19/19 A2982 RMK AO2 T01940194 =
2018-08-14 23:00 METAR KGFL 150300Z AUTO 00000KT 1 3/4SM BR SCT036 19/19 A2981 RMK AO2 LTG DSNT E
                 T01890189 =
2018-08-14 22:53 METAR KGFL 150253Z AUTO 00000KT 10SM FEW034 20/19 A2982 RMK AO2 LTG DSNT E
                 SLP095 T02000194 51006 =
2018-08-14 21:53 METAR KGFL 150153Z AUTO 09003KT 10SM BKN032 21/20 A2981 RMK AO2 LTG DSNT E
                 SLP094 T02060200 =
2018-08-14 20:53 METAR KGFL 150053Z AUTO 07004KT 10SM CLR 21/20 A2981 RMK AO2 LTG DSNT N AND E
                 SLP094 T02110200 =
2018-08-14 19:53 METAR KGFL 142353Z AUTO 11004KT 10SM FEW090 23/21 A2980 RMK AO2 LTG DSNT N AND
                 NE SLP089 60014 T02280211 10283 20228 53007 =
2018-08-14 19:12 METAR KGFL 142312Z AUTO 25003KT 10SM BKN047 BKN070 BKN090 23/22 A2979 RMK AO2
                 LTG DSNT N AND NE T02280222 =
2018-08-14 18:53 METAR KGFL 142253Z AUTO 00000KT 10SM VCTS FEW050 24/21 A2979 RMK AO2 LTG DSNT N
                 AND NE SLP084 T02440211 =
2018-08-14 18:26 METAR KGFL 142226Z AUTO 00000KT 10SM VCTS SCT050 SCT060 24/21 A2979 RMK AO2
                 T02390211 =
2018-08-14 17:53 METAR KGFL 142153Z AUTO VRB03KT 10SM CLR 24/20 A2978 RMK AO2 LTG DSNT NE RAE03
                 TSB2054E28 SLP083 P0000 T02390200 =
2018-08-14 17:34 METAR KGFL 142134Z AUTO 00000KT 10SM CLR 24/21 A2978 RMK AO2 LTG DSNT N-SE RAE03
                 TSB2054E28 P0000 T02390206 =
2018-08-14 17:05 METAR KGFL 142105Z AUTO 02007KT 10SM TS FEW020 SCT041 BKN070 24/21 A2977 RMK AO2
                 LTG DSNT NE-S RAE03 TSB2054 P0000 T02390206 =
2018-08-14 16:58 METAR KGFL 142058Z AUTO 04009KT 2SM -TSRA BR FEW020 SCT039 BKN055 24/22 A2977
                 RMK AO2 LTG DSNT E AND S TSB54 P0000 T02390217 =
2018-08-14 16:53 METAR KGFL 142053Z AUTO 03005KT 1 1/4SM VCTS +RA BR FEW022 BKN039 OVC090 23/21
                 A2978 RMK AO2 LTG DSNT E AND S RAB25 TSB16E36 SLP082 P0014 60014 T02280211 56015
                 =
2018-08-14 16:49 METAR KGFL 142049Z AUTO VRB04KT 1 3/4SM VCTS +RA BR FEW022 BKN041 OVC065 23/21
                 A2979 RMK AO2 LTG DSNT S RAB25 TSB16E36 P0012 =
2018-08-14 16:42 METAR KGFL 142042Z AUTO 09008KT 10SM VCTS -RA BKN041 BKN050 OVC060 24/21 A2978
                 RMK AO2 LTG DSNT S RAB25 TSB16E36 P0000 T02390211 =
2018-08-14 16:22 METAR KGFL 142022Z AUTO 17005KT 10SM TS SCT045 BKN055 28/19 A2978 RMK AO2 LTG
                 DSNT S AND SW TSB16 T02780194 =
2018-08-14 15:53 METAR KGFL 141953Z AUTO VRB03KT 10SM FEW046 SCT050 28/20 A2978 RMK AO2 LTG DSNT
                 SW SLP082 T02780200 =
2018-08-14 14:53 METAR KGFL 141853Z AUTO VRB03KT 10SM FEW039 FEW100 28/20 A2980 RMK AO2 SLP090
                 T02780200 =
2018-08-14 13:53 METAR KGFL 141753Z AUTO 16009KT 10SM FEW036 27/19 A2982 RMK AO2 SLP096 60001
                 T02670194 10272 20211 58013 =
2018-08-14 12:53 METAR KGFL 141653Z AUTO 16010KT 10SM CLR 26/21 A2984 RMK AO2 SLP102 T02610206 =
2018-08-14 11:53 METAR KGFL 141553Z AUTO 16008KT 10SM FEW031 SCT049 26/21 A2986 RMK AO2 SLP108
                 T02560206 =
2018-08-14 10:53 METAR KGFL 141453Z AUTO 19005KT 10SM FEW018 SCT032 BKN039 24/21 A2986 RMK AO2
                 SLP110 60001 T02390211 56005 =
2018-08-14 10:48 METAR KGFL 141448Z AUTO 21003KT 10SM FEW018 SCT023 BKN039 24/21 A2986 RMK AO2 =
2018-08-14 10:40 METAR KGFL 141440Z AUTO 18004KT 10SM SCT018 BKN027 OVC047 23/21 A2987 RMK AO2
                 T02330211 =
2018-08-14 09:53 METAR KGFL 141353Z AUTO VRB05KT 10SM SCT014 SCT018 OVC037 24/21 A2987 RMK AO2
                 SLP113 T02390211 =
2018-08-14 09:46 METAR KGFL 141346Z AUTO 15006KT 10SM BKN014 BKN028 OVC037 23/21 A2987 RMK AO2
                 T02330211 =
2018-08-14 09:39 METAR KGFL 141339Z AUTO 00000KT 10SM BKN009 BKN014 23/21 A2987 RMK AO2 CIG
                 008V013 T02280211 =
2018-08-14 09:30 METAR KGFL 141330Z AUTO 00000KT 10SM SCT009 BKN016 BKN041 23/21 A2987 RMK AO2
                 T02280211 =
2018-08-14 09:26 METAR KGFL 141326Z AUTO 00000KT 10SM BKN008 BKN013 BKN041 23/22 A2987 RMK AO2
                 T02330217 =
2018-08-14 09:01 METAR KGFL 141301Z AUTO 00000KT 10SM FEW007 BKN028 OVC041 22/21 A2988 RMK AO2
                 T02220211 =
2018-08-14 08:53 METAR KGFL 141253Z AUTO 07003KT 10SM FEW011 BKN028 OVC041 22/21 A2988 RMK AO2
                 RAB12E42 SLP116 P0001 T02170206 =
2018-08-14 08:31 METAR KGFL 141231Z AUTO 00000KT 3SM -RA BR SCT013 BKN021 OVC044 21/21 A2988 RMK
                 AO2 RAB12 P0001 T02110211 =
2018-08-14 08:27 METAR KGFL 141227Z AUTO 00000KT 2SM -RA BR FEW007 BKN014 OVC023 21/21 A2988 RMK
                 AO2 RAB12 P0001 T02110206 =
2018-08-14 07:53 METAR KGFL 141153Z AUTO 00000KT 10SM OVC027 21/21 A2988 RMK AO2 RAE04 SLP116
                 P0000 60006 70041 T02110206 10211 20200 53003 =
2018-08-14 06:53 METAR KGFL 141053Z AUTO 00000KT 8SM -RA OVC026 21/21 A2987 RMK AO2 RAB44 SLP112
                 P0000 T02060206 =
2018-08-14 05:53 METAR KGFL 140953Z AUTO 05003KT 10SM OVC029 21/21 A2986 RMK AO2 RAE03 SLP108
                 P0000 T02060206 =
2018-08-14 05:08 METAR KGFL 140908Z AUTO 04003KT 10SM FEW005 BKN024 OVC032 21/21 A2986 RMK AO2
                 RAE03 P0000 T02060206 =
2018-08-14 04:53 METAR KGFL 140853Z AUTO 00000KT 4SM -RA BR SCT018 OVC024 21/21 A2987 RMK AO2
                 SLP111 P0002 60006 T02060206 56014 =
2018-08-14 04:44 METAR KGFL 140844Z AUTO 07003KT 4SM -RA BR BKN021 OVC030 21/21 A2987 RMK AO2
                 P0001 T02060206 =

Support USWX by starting your Amazon purchase here.